sensor_id;sensor_type;location;lat;lon;timestamp;P1;durP1;ratioP1;P2;durP2;ratioP2
11935;SDS011;6027;48.576;9.180;2023-08-01T00:00:24;8.55;;;7.75;;
11935;SDS011;6027;48.576;9.180;2023-08-01T00:02:50;8.52;;;7.82;;
11935;SDS011;6027;48.576;9.180;2023-08-01T00:05:15;11.13;;;10.35;;
11935;SDS011;6027;48.576;9.180;2023-08-01T00:07:40;11.15;;;10.18;;
11935;SDS011;6027;48.576;9.180;2023-08-01T00:10:06;10.73;;;9.88;;
11935;SDS011;6027;48.576;9.180;2023-08-01T00:12:31;10.95;;;10.02;;
11935;SDS011;6027;48.576;9.180;2023-08-01T00:14:57;10.00;;;9.20;;
11935;SDS011;6027;48.576;9.180;2023-08-01T00:17:22;9.10;;;8.30;;
11935;SDS011;6027;48.576;9.180;2023-08-01T00:19:48;10.73;;;10.02;;
11935;SDS011;6027;48.576;9.180;2023-08-01T00:22:13;10.32;;;9.52;;
11935;SDS011;6027;48.576;9.180;2023-08-01T00:24:39;10.25;;;9.35;;
11935;SDS011;6027;48.576;9.180;2023-08-01T00:27:04;9.23;;;8.35;;
11935;SDS011;6027;48.576;9.180;2023-08-01T00:29:30;9.02;;;8.32;;
11935;SDS011;6027;48.576;9.180;2023-08-01T00:31:55;11.18;;;10.32;;
11935;SDS011;6027;48.576;9.180;2023-08-01T00:34:20;10.40;;;9.70;;
11935;SDS011;6027;48.576;9.180;2023-08-01T00:36:46;9.63;;;8.73;;
11935;SDS011;6027;48.576;9.180;2023-08-01T00:39:11;9.57;;;8.88;;
11935;SDS011;6027;48.576;9.180;2023-08-01T00:41:37;10.40;;;9.68;;
11935;SDS011;6027;48.576;9.180;2023-08-01T00:44:02;9.57;;;8.68;;
11935;SDS011;6027;48.576;9.180;2023-08-01T00:46:28;8.63;;;7.97;;
11935;SDS011;6027;48.576;9.180;2023-08-01T00:48:54;10.52;;;9.52;;
11935;SDS011;6027;48.576;9.180;2023-08-01T00:51:23;9.30;;;8.52;;
11935;SDS011;6027;48.576;9.180;2023-08-01T00:53:49;8.68;;;7.97;;
11935;SDS011;6027;48.576;9.180;2023-08-01T00:56:17;8.55;;;7.85;;
11935;SDS011;6027;48.576;9.180;2023-08-01T00:58:42;9.48;;;8.80;;
11935;SDS011;6027;48.576;9.180;2023-08-01T01:01:08;9.18;;;8.40;;
11935;SDS011;6027;48.576;9.180;2023-08-01T01:03:33;10.20;;;9.38;;
11935;SDS011;6027;48.576;9.180;2023-08-01T01:08:45;9.00;;;7.43;;
11935;SDS011;6027;48.576;9.180;2023-08-01T01:11:10;8.93;;;8.13;;
11935;SDS011;6027;48.576;9.180;2023-08-01T01:13:36;11.20;;;10.30;;
11935;SDS011;6027;48.576;9.180;2023-08-01T01:16:01;9.80;;;9.07;;
11935;SDS011;6027;48.576;9.180;2023-08-01T01:18:27;9.90;;;9.00;;
11935;SDS011;6027;48.576;9.180;2023-08-01T01:20:52;11.25;;;10.35;;
11935;SDS011;6027;48.576;9.180;2023-08-01T01:23:17;8.63;;;8.05;;
11935;SDS011;6027;48.576;9.180;2023-08-01T01:25:45;9.52;;;8.70;;
11935;SDS011;6027;48.576;9.180;2023-08-01T01:28:11;9.13;;;8.38;;
11935;SDS011;6027;48.576;9.180;2023-08-01T01:30:39;9.85;;;8.05;;
11935;SDS011;6027;48.576;9.180;2023-08-01T01:33:05;8.43;;;7.82;;
11935;SDS011;6027;48.576;9.180;2023-08-01T01:35:33;8.90;;;8.18;;
11935;SDS011;6027;48.576;9.180;2023-08-01T01:38:00;11.68;;;8.55;;
11935;SDS011;6027;48.576;9.180;2023-08-01T01:40:28;10.25;;;9.40;;
11935;SDS011;6027;48.576;9.180;2023-08-01T01:42:58;9.30;;;8.48;;
11935;SDS011;6027;48.576;9.180;2023-08-01T01:45:23;9.52;;;8.82;;
11935;SDS011;6027;48.576;9.180;2023-08-01T01:47:49;10.45;;;9.65;;
11935;SDS011;6027;48.576;9.180;2023-08-01T01:50:14;10.55;;;8.00;;
11935;SDS011;6027;48.576;9.180;2023-08-01T01:52:40;9.43;;;8.68;;
11935;SDS011;6027;48.576;9.180;2023-08-01T01:55:05;9.38;;;8.57;;
11935;SDS011;6027;48.576;9.180;2023-08-01T01:57:31;11.48;;;10.50;;
11935;SDS011;6027;48.576;9.180;2023-08-01T01:59:56;7.47;;;6.88;;
11935;SDS011;6027;48.576;9.180;2023-08-01T02:02:22;9.38;;;8.68;;
11935;SDS011;6027;48.576;9.180;2023-08-01T02:04:47;9.18;;;8.20;;
11935;SDS011;6027;48.576;9.180;2023-08-01T02:07:13;10.82;;;10.13;;
11935;SDS011;6027;48.576;9.180;2023-08-01T02:09:39;9.10;;;8.43;;
11935;SDS011;6027;48.576;9.180;2023-08-01T02:12:05;9.85;;;9.05;;
11935;SDS011;6027;48.576;9.180;2023-08-01T02:14:30;9.32;;;7.50;;
11935;SDS011;6027;48.576;9.180;2023-08-01T02:16:56;7.88;;;7.28;;
11935;SDS011;6027;48.576;9.180;2023-08-01T02:19:21;7.38;;;6.70;;
11935;SDS011;6027;48.576;9.180;2023-08-01T02:21:46;10.38;;;9.68;;
11935;SDS011;6027;48.576;9.180;2023-08-01T02:24:12;8.80;;;8.20;;
11935;SDS011;6027;48.576;9.180;2023-08-01T02:26:37;9.98;;;9.32;;
11935;SDS011;6027;48.576;9.180;2023-08-01T02:29:03;8.68;;;8.02;;
11935;SDS011;6027;48.576;9.180;2023-08-01T02:31:29;8.15;;;7.45;;
11935;SDS011;6027;48.576;9.180;2023-08-01T02:33:54;11.00;;;9.52;;
11935;SDS011;6027;48.576;9.180;2023-08-01T02:36:20;9.68;;;8.75;;
11935;SDS011;6027;48.576;9.180;2023-08-01T02:38:45;8.07;;;7.47;;
11935;SDS011;6027;48.576;9.180;2023-08-01T02:41:11;7.78;;;7.25;;
11935;SDS011;6027;48.576;9.180;2023-08-01T02:43:36;10.18;;;9.40;;
11935;SDS011;6027;48.576;9.180;2023-08-01T02:46:02;11.32;;;10.63;;
11935;SDS011;6027;48.576;9.180;2023-08-01T02:48:27;11.65;;;10.85;;
11935;SDS011;6027;48.576;9.180;2023-08-01T02:50:53;9.63;;;8.90;;
11935;SDS011;6027;48.576;9.180;2023-08-01T02:53:18;11.25;;;10.40;;
11935;SDS011;6027;48.576;9.180;2023-08-01T02:55:44;9.30;;;8.60;;
11935;SDS011;6027;48.576;9.180;2023-08-01T02:58:11;8.73;;;7.85;;
11935;SDS011;6027;48.576;9.180;2023-08-01T03:00:37;7.78;;;7.07;;
11935;SDS011;6027;48.576;9.180;2023-08-01T03:03:04;8.15;;;7.65;;
11935;SDS011;6027;48.576;9.180;2023-08-01T03:05:29;8.05;;;7.55;;
11935;SDS011;6027;48.576;9.180;2023-08-01T03:07:55;9.00;;;8.20;;
11935;SDS011;6027;48.576;9.180;2023-08-01T03:10:20;8.75;;;8.15;;
11935;SDS011;6027;48.576;9.180;2023-08-01T03:12:46;9.60;;;8.90;;
11935;SDS011;6027;48.576;9.180;2023-08-01T03:15:11;8.63;;;8.02;;
11935;SDS011;6027;48.576;9.180;2023-08-01T03:17:36;10.00;;;9.30;;
11935;SDS011;6027;48.576;9.180;2023-08-01T03:20:02;9.70;;;9.00;;
11935;SDS011;6027;48.576;9.180;2023-08-01T03:22:28;9.68;;;8.88;;
11935;SDS011;6027;48.576;9.180;2023-08-01T03:24:53;11.82;;;10.82;;
11935;SDS011;6027;48.576;9.180;2023-08-01T03:27:19;9.05;;;8.35;;
11935;SDS011;6027;48.576;9.180;2023-08-01T03:29:44;10.10;;;9.45;;
11935;SDS011;6027;48.576;9.180;2023-08-01T03:32:12;11.27;;;10.48;;
11935;SDS011;6027;48.576;9.180;2023-08-01T03:34:37;7.78;;;7.18;;
11935;SDS011;6027;48.576;9.180;2023-08-01T03:37:04;9.43;;;8.80;;
11935;SDS011;6027;48.576;9.180;2023-08-01T03:39:29;9.88;;;9.18;;
11935;SDS011;6027;48.576;9.180;2023-08-01T03:41:55;11.18;;;10.27;;
11935;SDS011;6027;48.576;9.180;2023-08-01T03:44:20;10.13;;;9.38;;
11935;SDS011;6027;48.576;9.180;2023-08-01T03:46:46;10.75;;;9.95;;
11935;SDS011;6027;48.576;9.180;2023-08-01T03:49:12;10.75;;;9.95;;
11935;SDS011;6027;48.576;9.180;2023-08-01T03:51:38;8.52;;;7.85;;
11935;SDS011;6027;48.576;9.180;2023-08-01T03:54:03;8.65;;;8.05;;
11935;SDS011;6027;48.576;9.180;2023-08-01T03:56:29;8.07;;;7.38;;
11935;SDS011;6027;48.576;9.180;2023-08-01T03:58:55;9.43;;;8.55;;
11935;SDS011;6027;48.576;9.180;2023-08-01T04:01:20;9.82;;;9.13;;
11935;SDS011;6027;48.576;9.180;2023-08-01T04:03:46;8.00;;;7.43;;
11935;SDS011;6027;48.576;9.180;2023-08-01T04:06:12;9.77;;;8.93;;
11935;SDS011;6027;48.576;9.180;2023-08-01T04:08:40;10.48;;;9.25;;
11935;SDS011;6027;48.576;9.180;2023-08-01T04:11:06;9.15;;;8.48;;
11935;SDS011;6027;48.576;9.180;2023-08-01T04:13:31;9.45;;;8.70;;
11935;SDS011;6027;48.576;9.180;2023-08-01T04:15:56;7.28;;;6.70;;
11935;SDS011;6027;48.576;9.180;2023-08-01T04:18:22;7.80;;;7.07;;
11935;SDS011;6027;48.576;9.180;2023-08-01T04:20:47;9.30;;;8.60;;
11935;SDS011;6027;48.576;9.180;2023-08-01T04:23:12;10.52;;;9.48;;
11935;SDS011;6027;48.576;9.180;2023-08-01T04:25:40;9.02;;;8.40;;
11935;SDS011;6027;48.576;9.180;2023-08-01T04:28:06;9.00;;;8.30;;
11935;SDS011;6027;48.576;9.180;2023-08-01T04:30:31;9.23;;;8.52;;
11935;SDS011;6027;48.576;9.180;2023-08-01T04:32:58;8.80;;;8.10;;
11935;SDS011;6027;48.576;9.180;2023-08-01T04:35:23;9.57;;;7.05;;
11935;SDS011;6027;48.576;9.180;2023-08-01T04:37:49;8.50;;;7.85;;
11935;SDS011;6027;48.576;9.180;2023-08-01T04:40:14;8.95;;;8.25;;
11935;SDS011;6027;48.576;9.180;2023-08-01T04:42:40;8.18;;;7.43;;
11935;SDS011;6027;48.576;9.180;2023-08-01T04:45:06;8.35;;;7.70;;
11935;SDS011;6027;48.576;9.180;2023-08-01T04:47:32;9.00;;;8.35;;
11935;SDS011;6027;48.576;9.180;2023-08-01T04:49:57;9.07;;;8.38;;
11935;SDS011;6027;48.576;9.180;2023-08-01T04:52:23;7.32;;;6.65;;
11935;SDS011;6027;48.576;9.180;2023-08-01T04:54:48;9.05;;;8.27;;
11935;SDS011;6027;48.576;9.180;2023-08-01T04:57:14;8.75;;;8.07;;
11935;SDS011;6027;48.576;9.180;2023-08-01T04:59:39;8.90;;;8.07;;
11935;SDS011;6027;48.576;9.180;2023-08-01T05:02:05;7.15;;;6.55;;
11935;SDS011;6027;48.576;9.180;2023-08-01T05:04:30;9.60;;;8.70;;
11935;SDS011;6027;48.576;9.180;2023-08-01T05:06:56;8.02;;;7.43;;
11935;SDS011;6027;48.576;9.180;2023-08-01T05:09:21;8.95;;;8.25;;
11935;SDS011;6027;48.576;9.180;2023-08-01T05:11:46;8.02;;;7.32;;
11935;SDS011;6027;48.576;9.180;2023-08-01T05:14:12;10.57;;;9.57;;
11935;SDS011;6027;48.576;9.180;2023-08-01T05:16:37;8.95;;;8.15;;
11935;SDS011;6027;48.576;9.180;2023-08-01T05:19:03;7.82;;;7.13;;
11935;SDS011;6027;48.576;9.180;2023-08-01T05:21:28;8.20;;;7.50;;
11935;SDS011;6027;48.576;9.180;2023-08-01T05:23:53;9.35;;;8.55;;
11935;SDS011;6027;48.576;9.180;2023-08-01T05:26:19;9.85;;;9.15;;
11935;SDS011;6027;48.576;9.180;2023-08-01T05:28:44;7.75;;;7.03;;
11935;SDS011;6027;48.576;9.180;2023-08-01T05:31:10;7.80;;;7.00;;
11935;SDS011;6027;48.576;9.180;2023-08-01T05:33:35;8.73;;;7.93;;
11935;SDS011;6027;48.576;9.180;2023-08-01T05:36:00;10.10;;;9.30;;
11935;SDS011;6027;48.576;9.180;2023-08-01T05:38:26;9.50;;;8.80;;
11935;SDS011;6027;48.576;9.180;2023-08-01T05:40:51;9.68;;;8.90;;
11935;SDS011;6027;48.576;9.180;2023-08-01T05:43:17;8.48;;;7.82;;
11935;SDS011;6027;48.576;9.180;2023-08-01T05:45:42;7.13;;;6.50;;
11935;SDS011;6027;48.576;9.180;2023-08-01T05:48:08;8.73;;;8.13;;
11935;SDS011;6027;48.576;9.180;2023-08-01T05:50:34;9.07;;;8.23;;
11935;SDS011;6027;48.576;9.180;2023-08-01T05:52:59;8.30;;;7.63;;
11935;SDS011;6027;48.576;9.180;2023-08-01T05:55:24;8.30;;;7.50;;
11935;SDS011;6027;48.576;9.180;2023-08-01T05:57:50;8.65;;;7.70;;
11935;SDS011;6027;48.576;9.180;2023-08-01T06:00:17;7.50;;;6.95;;
11935;SDS011;6027;48.576;9.180;2023-08-01T06:02:46;7.68;;;6.97;;
11935;SDS011;6027;48.576;9.180;2023-08-01T06:05:12;6.82;;;6.30;;
11935;SDS011;6027;48.576;9.180;2023-08-01T06:07:37;7.82;;;7.13;;
11935;SDS011;6027;48.576;9.180;2023-08-01T06:10:03;7.93;;;7.32;;
11935;SDS011;6027;48.576;9.180;2023-08-01T06:12:29;6.88;;;6.28;;
11935;SDS011;6027;48.576;9.180;2023-08-01T06:14:55;8.57;;;7.90;;
11935;SDS011;6027;48.576;9.180;2023-08-01T06:17:20;8.07;;;7.53;;
11935;SDS011;6027;48.576;9.180;2023-08-01T06:19:45;7.97;;;7.22;;
11935;SDS011;6027;48.576;9.180;2023-08-01T06:22:11;8.05;;;7.35;;
11935;SDS011;6027;48.576;9.180;2023-08-01T06:24:36;8.75;;;7.22;;
11935;SDS011;6027;48.576;9.180;2023-08-01T06:27:02;8.55;;;7.90;;
11935;SDS011;6027;48.576;9.180;2023-08-01T06:29:27;9.10;;;8.40;;
11935;SDS011;6027;48.576;9.180;2023-08-01T06:31:53;11.43;;;8.00;;
11935;SDS011;6027;48.576;9.180;2023-08-01T06:34:19;8.45;;;7.65;;
11935;SDS011;6027;48.576;9.180;2023-08-01T06:36:44;8.88;;;8.18;;
11935;SDS011;6027;48.576;9.180;2023-08-01T06:39:10;9.38;;;8.48;;
11935;SDS011;6027;48.576;9.180;2023-08-01T06:41:36;8.85;;;8.15;;
11935;SDS011;6027;48.576;9.180;2023-08-01T06:44:01;7.80;;;7.28;;
11935;SDS011;6027;48.576;9.180;2023-08-01T06:46:26;7.97;;;7.38;;
11935;SDS011;6027;48.576;9.180;2023-08-01T06:48:52;8.48;;;7.78;;
11935;SDS011;6027;48.576;9.180;2023-08-01T06:51:17;9.40;;;8.48;;
11935;SDS011;6027;48.576;9.180;2023-08-01T06:53:42;9.38;;;7.72;;
11935;SDS011;6027;48.576;9.180;2023-08-01T06:56:08;8.85;;;8.13;;
11935;SDS011;6027;48.576;9.180;2023-08-01T06:58:33;9.52;;;8.63;;
11935;SDS011;6027;48.576;9.180;2023-08-01T07:00:59;9.68;;;8.98;;
11935;SDS011;6027;48.576;9.180;2023-08-01T07:03:24;8.95;;;8.18;;
11935;SDS011;6027;48.576;9.180;2023-08-01T07:05:49;8.52;;;7.82;;
11935;SDS011;6027;48.576;9.180;2023-08-01T07:08:15;9.32;;;8.63;;
11935;SDS011;6027;48.576;9.180;2023-08-01T07:10:41;9.88;;;9.00;;
11935;SDS011;6027;48.576;9.180;2023-08-01T07:13:06;9.45;;;8.65;;
11935;SDS011;6027;48.576;9.180;2023-08-01T07:15:32;9.48;;;8.68;;
11935;SDS011;6027;48.576;9.180;2023-08-01T07:17:57;10.23;;;9.32;;
11935;SDS011;6027;48.576;9.180;2023-08-01T07:20:23;9.30;;;8.60;;
11935;SDS011;6027;48.576;9.180;2023-08-01T07:22:48;12.45;;;9.60;;
11935;SDS011;6027;48.576;9.180;2023-08-01T07:25:14;7.53;;;6.88;;
11935;SDS011;6027;48.576;9.180;2023-08-01T07:27:41;10.85;;;7.90;;
11935;SDS011;6027;48.576;9.180;2023-08-01T07:30:06;8.45;;;7.82;;
11935;SDS011;6027;48.576;9.180;2023-08-01T07:32:32;9.45;;;8.73;;
11935;SDS011;6027;48.576;9.180;2023-08-01T07:34:58;11.02;;;10.13;;
11935;SDS011;6027;48.576;9.180;2023-08-01T07:37:24;10.15;;;9.43;;
11935;SDS011;6027;48.576;9.180;2023-08-01T07:39:49;10.48;;;9.63;;
11935;SDS011;6027;48.576;9.180;2023-08-01T07:42:15;8.65;;;7.95;;
11935;SDS011;6027;48.576;9.180;2023-08-01T07:44:41;8.93;;;8.13;;
11935;SDS011;6027;48.576;9.180;2023-08-01T07:47:06;8.93;;;8.18;;
11935;SDS011;6027;48.576;9.180;2023-08-01T07:49:31;8.23;;;7.53;;
11935;SDS011;6027;48.576;9.180;2023-08-01T07:51:57;8.18;;;7.47;;
11935;SDS011;6027;48.576;9.180;2023-08-01T07:54:23;8.88;;;8.15;;
11935;SDS011;6027;48.576;9.180;2023-08-01T07:56:49;9.32;;;8.38;;
11935;SDS011;6027;48.576;9.180;2023-08-01T07:59:14;10.70;;;9.90;;
11935;SDS011;6027;48.576;9.180;2023-08-01T08:01:41;9.93;;;8.80;;
11935;SDS011;6027;48.576;9.180;2023-08-01T08:04:06;10.88;;;9.88;;
11935;SDS011;6027;48.576;9.180;2023-08-01T08:06:32;10.40;;;9.57;;
11935;SDS011;6027;48.576;9.180;2023-08-01T08:08:57;10.05;;;9.05;;
11935;SDS011;6027;48.576;9.180;2023-08-01T08:11:23;10.10;;;9.23;;
11935;SDS011;6027;48.576;9.180;2023-08-01T08:13:48;10.05;;;9.35;;
11935;SDS011;6027;48.576;9.180;2023-08-01T08:16:14;10.23;;;9.45;;
11935;SDS011;6027;48.576;9.180;2023-08-01T08:18:39;12.63;;;11.68;;
11935;SDS011;6027;48.576;9.180;2023-08-01T08:21:05;10.88;;;10.00;;
11935;SDS011;6027;48.576;9.180;2023-08-01T08:23:30;12.85;;;11.85;;
11935;SDS011;6027;48.576;9.180;2023-08-01T08:25:55;10.35;;;9.45;;
11935;SDS011;6027;48.576;9.180;2023-08-01T08:28:31;13.45;;;12.55;;
11935;SDS011;6027;48.576;9.180;2023-08-01T08:30:58;12.68;;;11.68;;
11935;SDS011;6027;48.576;9.180;2023-08-01T08:33:25;12.57;;;11.68;;
11935;SDS011;6027;48.576;9.180;2023-08-01T08:35:50;13.88;;;12.77;;
11935;SDS011;6027;48.576;9.180;2023-08-01T08:38:16;13.57;;;12.60;;
11935;SDS011;6027;48.576;9.180;2023-08-01T08:40:43;11.65;;;10.75;;
11935;SDS011;6027;48.576;9.180;2023-08-01T08:43:32;14.30;;;13.30;;
11935;SDS011;6027;48.576;9.180;2023-08-01T08:46:00;14.60;;;13.60;;
11935;SDS011;6027;48.576;9.180;2023-08-01T08:48:26;14.85;;;13.77;;
11935;SDS011;6027;48.576;9.180;2023-08-01T08:50:53;13.73;;;12.73;;
11935;SDS011;6027;48.576;9.180;2023-08-01T08:53:21;15.70;;;14.50;;
11935;SDS011;6027;48.576;9.180;2023-08-01T08:55:48;14.35;;;13.43;;
11935;SDS011;6027;48.576;9.180;2023-08-01T08:58:13;13.07;;;12.00;;
11935;SDS011;6027;48.576;9.180;2023-08-01T09:00:41;12.52;;;11.52;;
11935;SDS011;6027;48.576;9.180;2023-08-01T09:03:07;15.10;;;13.90;;
11935;SDS011;6027;48.576;9.180;2023-08-01T09:05:44;13.88;;;12.90;;
11935;SDS011;6027;48.576;9.180;2023-08-01T09:08:20;15.00;;;13.98;;
11935;SDS011;6027;48.576;9.180;2023-08-01T09:10:47;14.48;;;13.43;;
11935;SDS011;6027;48.576;9.180;2023-08-01T09:13:13;13.98;;;13.00;;
11935;SDS011;6027;48.576;9.180;2023-08-01T09:15:42;11.68;;;10.88;;
11935;SDS011;6027;48.576;9.180;2023-08-01T09:18:09;14.40;;;13.38;;
11935;SDS011;6027;48.576;9.180;2023-08-01T09:20:47;15.20;;;14.10;;
11935;SDS011;6027;48.576;9.180;2023-08-01T09:23:14;14.02;;;13.07;;
11935;SDS011;6027;48.576;9.180;2023-08-01T09:25:41;13.95;;;13.00;;
11935;SDS011;6027;48.576;9.180;2023-08-01T09:28:20;13.60;;;12.70;;
11935;SDS011;6027;48.576;9.180;2023-08-01T09:33:13;13.18;;;12.23;;
11935;SDS011;6027;48.576;9.180;2023-08-01T09:35:39;12.20;;;11.20;;
11935;SDS011;6027;48.576;9.180;2023-08-01T09:38:04;14.35;;;13.43;;
11935;SDS011;6027;48.576;9.180;2023-08-01T09:40:36;11.82;;;10.98;;
11935;SDS011;6027;48.576;9.180;2023-08-01T09:43:02;13.57;;;12.57;;
11935;SDS011;6027;48.576;9.180;2023-08-01T09:45:28;11.00;;;10.25;;
11935;SDS011;6027;48.576;9.180;2023-08-01T09:47:53;11.23;;;10.43;;
11935;SDS011;6027;48.576;9.180;2023-08-01T09:50:22;13.05;;;12.05;;
11935;SDS011;6027;48.576;9.180;2023-08-01T09:52:49;13.85;;;12.65;;
11935;SDS011;6027;48.576;9.180;2023-08-01T09:55:23;14.15;;;13.15;;
11935;SDS011;6027;48.576;9.180;2023-08-01T09:57:53;9.98;;;9.25;;
11935;SDS011;6027;48.576;9.180;2023-08-01T10:00:22;11.63;;;10.88;;
11935;SDS011;6027;48.576;9.180;2023-08-01T10:02:48;13.57;;;12.57;;
11935;SDS011;6027;48.576;9.180;2023-08-01T10:05:18;11.10;;;10.43;;
11935;SDS011;6027;48.576;9.180;2023-08-01T10:07:44;10.95;;;10.23;;
11935;SDS011;6027;48.576;9.180;2023-08-01T10:10:11;11.25;;;10.50;;
11935;SDS011;6027;48.576;9.180;2023-08-01T10:12:37;13.23;;;12.38;;
11935;SDS011;6027;48.576;9.180;2023-08-01T10:15:03;9.90;;;9.23;;
11935;SDS011;6027;48.576;9.180;2023-08-01T10:17:30;10.50;;;9.80;;
11935;SDS011;6027;48.576;9.180;2023-08-01T10:19:56;10.95;;;10.15;;
11935;SDS011;6027;48.576;9.180;2023-08-01T10:22:23;10.02;;;9.30;;
11935;SDS011;6027;48.576;9.180;2023-08-01T10:24:50;9.70;;;9.02;;
11935;SDS011;6027;48.576;9.180;2023-08-01T10:27:19;12.00;;;11.23;;
11935;SDS011;6027;48.576;9.180;2023-08-01T10:29:59;12.07;;;10.98;;
11935;SDS011;6027;48.576;9.180;2023-08-01T10:32:32;11.70;;;10.68;;
11935;SDS011;6027;48.576;9.180;2023-08-01T10:35:02;8.68;;;8.02;;
11935;SDS011;6027;48.576;9.180;2023-08-01T10:37:45;11.23;;;10.52;;
11935;SDS011;6027;48.576;9.180;2023-08-01T10:42:44;13.18;;;12.32;;
11935;SDS011;6027;48.576;9.180;2023-08-01T10:45:20;10.65;;;9.82;;
11935;SDS011;6027;48.576;9.180;2023-08-01T10:47:48;9.77;;;9.18;;
11935;SDS011;6027;48.576;9.180;2023-08-01T10:50:17;10.23;;;9.52;;
11935;SDS011;6027;48.576;9.180;2023-08-01T10:52:43;9.10;;;8.48;;
11935;SDS011;6027;48.576;9.180;2023-08-01T10:55:10;9.85;;;9.13;;
11935;SDS011;6027;48.576;9.180;2023-08-01T10:57:39;9.85;;;9.27;;
11935;SDS011;6027;48.576;9.180;2023-08-01T11:00:15;11.95;;;11.20;;
11935;SDS011;6027;48.576;9.180;2023-08-01T11:02:41;11.30;;;10.30;;
11935;SDS011;6027;48.576;9.180;2023-08-01T11:05:06;10.95;;;10.25;;
11935;SDS011;6027;48.576;9.180;2023-08-01T11:07:33;10.07;;;9.48;;
11935;SDS011;6027;48.576;9.180;2023-08-01T11:10:03;10.15;;;9.55;;
11935;SDS011;6027;48.576;9.180;2023-08-01T11:12:35;10.55;;;9.95;;
11935;SDS011;6027;48.576;9.180;2023-08-01T11:15:13;9.80;;;9.18;;
11935;SDS011;6027;48.576;9.180;2023-08-01T11:17:40;11.07;;;10.25;;
11935;SDS011;6027;48.576;9.180;2023-08-01T11:20:07;9.23;;;8.63;;
11935;SDS011;6027;48.576;9.180;2023-08-01T11:22:36;10.68;;;9.98;;
11935;SDS011;6027;48.576;9.180;2023-08-01T11:25:02;8.68;;;8.13;;
11935;SDS011;6027;48.576;9.180;2023-08-01T11:27:28;10.18;;;9.60;;
11935;SDS011;6027;48.576;9.180;2023-08-01T11:29:54;12.00;;;11.32;;
11935;SDS011;6027;48.576;9.180;2023-08-01T11:32:21;11.68;;;10.98;;
11935;SDS011;6027;48.576;9.180;2023-08-01T11:34:57;9.82;;;9.30;;
11935;SDS011;6027;48.576;9.180;2023-08-01T11:37:22;8.70;;;8.20;;
11935;SDS011;6027;48.576;9.180;2023-08-01T11:39:48;9.60;;;9.00;;
11935;SDS011;6027;48.576;9.180;2023-08-01T11:42:16;9.40;;;8.70;;
11935;SDS011;6027;48.576;9.180;2023-08-01T11:44:43;10.68;;;9.88;;
11935;SDS011;6027;48.576;9.180;2023-08-01T11:47:15;8.98;;;8.27;;
11935;SDS011;6027;48.576;9.180;2023-08-01T11:49:46;12.00;;;11.30;;
11935;SDS011;6027;48.576;9.180;2023-08-01T11:52:31;9.82;;;9.23;;
11935;SDS011;6027;48.576;9.180;2023-08-01T11:54:56;7.40;;;7.00;;
11935;SDS011;6027;48.576;9.180;2023-08-01T11:57:22;8.75;;;8.25;;
11935;SDS011;6027;48.576;9.180;2023-08-01T11:59:52;7.72;;;7.30;;
11935;SDS011;6027;48.576;9.180;2023-08-01T12:02:23;8.23;;;7.78;;
11935;SDS011;6027;48.576;9.180;2023-08-01T12:04:49;6.05;;;5.65;;
11935;SDS011;6027;48.576;9.180;2023-08-01T12:07:15;8.57;;;8.07;;
11935;SDS011;6027;48.576;9.180;2023-08-01T12:09:41;5.80;;;5.43;;
11935;SDS011;6027;48.576;9.180;2023-08-01T12:12:08;9.07;;;8.52;;
11935;SDS011;6027;48.576;9.180;2023-08-01T12:14:34;6.97;;;6.57;;
11935;SDS011;6027;48.576;9.180;2023-08-01T12:17:04;7.20;;;6.80;;
11935;SDS011;6027;48.576;9.180;2023-08-01T12:19:30;6.22;;;5.82;;
11935;SDS011;6027;48.576;9.180;2023-08-01T12:21:55;6.10;;;5.78;;
11935;SDS011;6027;48.576;9.180;2023-08-01T12:24:21;6.97;;;6.57;;
11935;SDS011;6027;48.576;9.180;2023-08-01T12:26:46;7.80;;;7.30;;
11935;SDS011;6027;48.576;9.180;2023-08-01T12:29:12;6.50;;;6.13;;
11935;SDS011;6027;48.576;9.180;2023-08-01T12:31:37;5.00;;;4.63;;
11935;SDS011;6027;48.576;9.180;2023-08-01T12:34:02;8.82;;;8.32;;
11935;SDS011;6027;48.576;9.180;2023-08-01T12:36:28;6.75;;;6.35;;
11935;SDS011;6027;48.576;9.180;2023-08-01T12:38:53;7.47;;;6.93;;
11935;SDS011;6027;48.576;9.180;2023-08-01T12:41:19;6.55;;;6.15;;
11935;SDS011;6027;48.576;9.180;2023-08-01T12:43:44;5.72;;;5.43;;
11935;SDS011;6027;48.576;9.180;2023-08-01T12:46:10;7.40;;;6.90;;
11935;SDS011;6027;48.576;9.180;2023-08-01T12:48:35;5.90;;;5.60;;
11935;SDS011;6027;48.576;9.180;2023-08-01T12:51:02;5.85;;;5.35;;
11935;SDS011;6027;48.576;9.180;2023-08-01T12:53:27;8.00;;;7.45;;
11935;SDS011;6027;48.576;9.180;2023-08-01T12:56:03;7.00;;;6.53;;
11935;SDS011;6027;48.576;9.180;2023-08-01T12:58:28;5.78;;;5.47;;
11935;SDS011;6027;48.576;9.180;2023-08-01T13:00:54;6.85;;;6.50;;
11935;SDS011;6027;48.576;9.180;2023-08-01T13:03:20;7.78;;;7.28;;
11935;SDS011;6027;48.576;9.180;2023-08-01T13:05:46;6.32;;;5.93;;
11935;SDS011;6027;48.576;9.180;2023-08-01T13:08:11;5.18;;;4.88;;
11935;SDS011;6027;48.576;9.180;2023-08-01T13:10:37;7.32;;;6.88;;
11935;SDS011;6027;48.576;9.180;2023-08-01T13:13:03;4.90;;;4.65;;
11935;SDS011;6027;48.576;9.180;2023-08-01T13:15:29;6.15;;;5.75;;
11935;SDS011;6027;48.576;9.180;2023-08-01T13:17:55;7.00;;;6.38;;
11935;SDS011;6027;48.576;9.180;2023-08-01T13:20:21;7.03;;;6.63;;
11935;SDS011;6027;48.576;9.180;2023-08-01T13:22:48;6.47;;;6.07;;
11935;SDS011;6027;48.576;9.180;2023-08-01T13:25:14;6.90;;;6.35;;
11935;SDS011;6027;48.576;9.180;2023-08-01T13:27:40;5.90;;;5.60;;
11935;SDS011;6027;48.576;9.180;2023-08-01T13:30:06;6.68;;;6.20;;
11935;SDS011;6027;48.576;9.180;2023-08-01T13:32:33;5.78;;;5.32;;
11935;SDS011;6027;48.576;9.180;2023-08-01T13:34:58;4.53;;;4.30;;
11935;SDS011;6027;48.576;9.180;2023-08-01T13:37:24;7.65;;;7.25;;
11935;SDS011;6027;48.576;9.180;2023-08-01T13:39:50;5.38;;;4.97;;
11935;SDS011;6027;48.576;9.180;2023-08-01T13:42:15;5.72;;;5.40;;
11935;SDS011;6027;48.576;9.180;2023-08-01T13:44:40;6.20;;;5.40;;
11935;SDS011;6027;48.576;9.180;2023-08-01T13:47:06;7.28;;;6.80;;
11935;SDS011;6027;48.576;9.180;2023-08-01T13:49:31;7.18;;;6.50;;
11935;SDS011;6027;48.576;9.180;2023-08-01T13:51:58;5.75;;;5.45;;
11935;SDS011;6027;48.576;9.180;2023-08-01T13:54:23;7.30;;;6.82;;
11935;SDS011;6027;48.576;9.180;2023-08-01T13:56:49;6.28;;;5.85;;
11935;SDS011;6027;48.576;9.180;2023-08-01T13:59:14;6.35;;;5.95;;
11935;SDS011;6027;48.576;9.180;2023-08-01T14:01:40;5.60;;;5.30;;
11935;SDS011;6027;48.576;9.180;2023-08-01T14:04:05;5.68;;;5.38;;
11935;SDS011;6027;48.576;9.180;2023-08-01T14:06:30;6.63;;;6.22;;
11935;SDS011;6027;48.576;9.180;2023-08-01T14:08:56;7.00;;;6.40;;
11935;SDS011;6027;48.576;9.180;2023-08-01T14:11:21;6.60;;;6.22;;
11935;SDS011;6027;48.576;9.180;2023-08-01T14:13:47;5.43;;;5.13;;
11935;SDS011;6027;48.576;9.180;2023-08-01T14:16:12;6.40;;;5.80;;
11935;SDS011;6027;48.576;9.180;2023-08-01T14:18:38;6.85;;;6.45;;
11935;SDS011;6027;48.576;9.180;2023-08-01T14:21:04;5.55;;;5.25;;
11935;SDS011;6027;48.576;9.180;2023-08-01T14:23:30;6.88;;;6.28;;
11935;SDS011;6027;48.576;9.180;2023-08-01T14:25:59;5.18;;;4.88;;
11935;SDS011;6027;48.576;9.180;2023-08-01T14:28:25;5.85;;;5.45;;
11935;SDS011;6027;48.576;9.180;2023-08-01T14:30:50;4.57;;;4.30;;
11935;SDS011;6027;48.576;9.180;2023-08-01T14:33:16;6.20;;;5.80;;
11935;SDS011;6027;48.576;9.180;2023-08-01T14:35:41;5.20;;;4.90;;
11935;SDS011;6027;48.576;9.180;2023-08-01T14:38:07;6.30;;;5.90;;
11935;SDS011;6027;48.576;9.180;2023-08-01T14:40:35;6.10;;;5.70;;
11935;SDS011;6027;48.576;9.180;2023-08-01T14:43:01;5.10;;;4.80;;
11935;SDS011;6027;48.576;9.180;2023-08-01T14:45:27;5.38;;;5.05;;
11935;SDS011;6027;48.576;9.180;2023-08-01T14:47:52;5.65;;;5.22;;
11935;SDS011;6027;48.576;9.180;2023-08-01T14:50:18;5.55;;;5.00;;
11935;SDS011;6027;48.576;9.180;2023-08-01T14:52:43;7.00;;;6.60;;
11935;SDS011;6027;48.576;9.180;2023-08-01T14:55:10;6.50;;;6.10;;